createdAt,value
2023-04-02T09:17:26.408Z,5.80
2023-04-02T09:20:19.101Z,5.70
2023-04-02T09:22:51.440Z,5.80
2023-04-02T09:25:31.367Z,5.90
2023-04-02T09:28:01.986Z,5.90
2023-04-02T09:30:31.769Z,6.10
2023-04-02T09:33:08.108Z,6.10
2023-04-02T09:35:56.528Z,6.10
2023-04-02T09:38:35.303Z,6.10
2023-04-02T09:41:07.324Z,6.10
2023-04-02T09:43:36.920Z,6.20
2023-04-02T09:46:05.731Z,6.10
2023-04-02T09:48:34.283Z,6.10
2023-04-02T09:51:22.862Z,6.10
2023-04-02T09:53:51.946Z,6.20
2023-04-02T09:56:24.403Z,6.10
2023-04-02T09:59:05.986Z,6.10
2023-04-02T10:01:38.876Z,6.20
2023-04-02T10:04:27.064Z,6.10
2023-04-02T10:06:57.922Z,6.20
2023-04-02T10:09:36.509Z,6.20
2023-04-02T10:12:06.816Z,6.20
2023-04-02T10:14:39.101Z,6.30
2023-04-02T10:17:10.809Z,6.30
2023-04-02T10:19:53.963Z,6.30
2023-04-02T10:22:22.930Z,6.30
2023-04-02T10:24:50.813Z,6.20
2023-04-02T10:27:50.149Z,6.20
2023-04-02T10:30:31.707Z,6.20
2023-04-02T10:33:12.620Z,6.20
2023-04-02T10:35:50.096Z,6.20
2023-04-02T10:38:57.425Z,6.30
2023-04-02T10:41:41.299Z,6.00
2023-04-02T10:44:26.984Z,5.90
2023-04-02T10:47:27.304Z,5.90
2023-04-02T10:50:26.274Z,6.00
2023-04-02T10:53:04.354Z,5.90
2023-04-02T10:55:40.899Z,5.80
2023-04-02T10:58:24.698Z,5.80
2023-04-02T11:00:56.837Z,5.90
2023-04-02T11:03:35.302Z,6.10
2023-04-02T11:06:18.867Z,6.20
2023-04-02T11:08:52.058Z,6.30
2023-04-02T11:11:26.431Z,6.40
2023-04-02T11:14:01.144Z,6.50
2023-04-02T11:16:28.214Z,6.50
2023-04-02T11:19:34.317Z,6.50
2023-04-02T11:22:06.429Z,6.40
2023-04-02T11:24:48.389Z,6.40
2023-04-02T11:27:20.673Z,6.50
2023-04-02T11:29:50.451Z,6.30
2023-04-02T11:32:27.472Z,6.30
2023-04-02T11:35:05.712Z,6.40
2023-04-02T11:37:38.326Z,6.40
2023-04-02T11:40:11.222Z,6.50
2023-04-02T11:42:40.525Z,6.50
2023-04-02T11:45:28.229Z,6.40
2023-04-02T11:48:08.493Z,6.20
2023-04-02T11:50:40.946Z,6.30
2023-04-02T11:53:11.503Z,6.40
2023-04-02T11:55:46.114Z,6.40
2023-04-02T11:58:34.991Z,6.30
2023-04-02T12:01:32.984Z,6.20
2023-04-02T12:04:18.579Z,6.20
2023-04-02T12:07:19.981Z,6.20
2023-04-02T12:09:51.494Z,6.30
2023-04-02T12:12:24.153Z,6.30
2023-04-02T12:14:56.409Z,6.40
2023-04-02T12:17:30.687Z,6.40
2023-04-02T12:20:03.157Z,6.30
2023-04-02T12:22:32.782Z,6.40
2023-04-02T12:25:07.192Z,6.40
2023-04-02T12:27:38.121Z,6.40
2023-04-02T12:30:21.565Z,6.50
2023-04-02T12:32:49.586Z,6.50
2023-04-02T12:35:30.752Z,6.50
2023-04-02T12:37:58.030Z,6.50
2023-04-02T12:40:26.232Z,6.60
2023-04-02T12:42:53.530Z,6.60
2023-04-02T12:45:29.930Z,6.60
2023-04-02T12:47:57.907Z,6.70
2023-04-02T12:50:24.937Z,6.50
2023-04-02T12:52:55.073Z,6.40
2023-04-02T12:55:24.642Z,6.30
2023-04-02T12:57:58.522Z,6.30
2023-04-02T13:00:25.483Z,6.30
2023-04-02T13:03:18.605Z,6.40
2023-04-02T13:05:53.447Z,6.40
2023-04-02T13:08:33.168Z,6.50
2023-04-02T13:11:04.948Z,6.50
2023-04-02T13:13:43.501Z,6.40
2023-04-02T13:16:10.509Z,6.40
2023-04-02T13:18:38.600Z,6.40
2023-04-02T13:21:16.378Z,6.50
2023-04-02T13:23:44.558Z,6.60
2023-04-02T13:26:27.260Z,6.40
2023-04-02T13:29:15.507Z,6.40
2023-04-02T13:31:42.446Z,6.50
2023-04-02T13:34:09.286Z,6.50
2023-04-02T13:36:37.320Z,6.50
2023-04-02T13:39:04.977Z,6.50
2023-04-02T13:41:36.232Z,6.50
2023-04-02T13:44:04.043Z,6.40
2023-04-02T13:46:35.220Z,6.30
2023-04-02T13:49:02.106Z,6.50
2023-04-02T13:51:38.308Z,6.60
2023-04-02T13:54:13.925Z,6.70
2023-04-02T13:56:41.328Z,6.80
2023-04-02T13:59:08.073Z,6.80
2023-04-02T14:01:35.149Z,6.80
2023-04-02T14:04:02.839Z,6.80
2023-04-02T14:06:58.676Z,6.80
2023-04-02T14:09:37.164Z,6.70
2023-04-02T14:12:30.765Z,6.70
2023-04-02T14:15:12.506Z,6.60
2023-04-02T14:18:27.169Z,6.70
2023-04-02T14:21:12.351Z,6.80
2023-04-02T14:23:57.120Z,6.80
2023-04-02T14:26:49.478Z,6.80
2023-04-02T14:29:29.394Z,6.80
2023-04-02T14:32:25.565Z,6.60
2023-04-02T14:35:14.722Z,6.60
2023-04-02T14:37:54.078Z,6.60
2023-04-02T14:40:55.030Z,6.70
2023-04-02T14:43:50.389Z,6.80
2023-04-02T14:46:17.130Z,6.90
2023-04-02T14:49:20.853Z,6.90
2023-04-02T14:51:59.026Z,6.80
2023-04-02T14:54:50.128Z,6.80
2023-04-02T14:57:23.909Z,6.80
2023-04-02T15:00:28.347Z,6.80
2023-04-02T15:03:17.139Z,6.80
2023-04-02T15:05:50.153Z,6.80
2023-04-02T15:08:22.071Z,6.60
2023-04-02T15:11:15.410Z,6.70
2023-04-02T15:14:16.240Z,6.70
2023-04-02T15:16:44.544Z,6.70
2023-04-02T15:19:14.579Z,6.60
2023-04-02T15:22:29.522Z,6.70
2023-04-02T15:25:46.547Z,6.80
2023-04-02T15:28:25.958Z,6.80
2023-04-02T15:30:58.929Z,6.70
2023-04-02T15:33:44.631Z,6.70
2023-04-02T15:36:33.078Z,6.70
2023-04-02T15:39:05.247Z,6.70
2023-04-02T15:41:40.890Z,6.70
2023-04-02T15:44:15.441Z,6.60
2023-04-02T15:46:48.220Z,6.50
2023-04-02T15:49:36.096Z,6.70
2023-04-02T15:52:17.873Z,6.80
2023-04-02T15:55:16.385Z,6.80
2023-04-02T15:58:05.027Z,6.70
2023-04-02T16:00:56.430Z,6.60
2023-04-02T16:03:33.152Z,6.60
2023-04-02T16:06:02.666Z,6.50
2023-04-02T16:08:57.121Z,6.50
2023-04-02T16:11:25.847Z,6.50
2023-04-02T16:14:03.952Z,6.60
2023-04-02T16:16:33.143Z,6.50
2023-04-02T16:19:05.458Z,6.60
2023-04-02T16:22:03.407Z,6.70
2023-04-02T16:24:30.283Z,6.80
2023-04-02T16:27:30.827Z,6.70
2023-04-02T16:30:19.580Z,6.60
2023-04-02T16:32:59.543Z,6.70
2023-04-02T16:35:47.866Z,6.70
2023-04-02T16:38:20.452Z,6.70
2023-04-02T16:41:07.096Z,6.70
2023-04-02T16:43:38.078Z,6.70
2023-04-02T16:46:11.767Z,6.60
2023-04-02T16:48:50.928Z,6.60
2023-04-02T16:51:26.548Z,6.70
2023-04-02T16:54:16.496Z,6.60
2023-04-02T16:57:01.105Z,6.60
2023-04-02T16:59:53.423Z,6.70
2023-04-02T17:02:39.853Z,6.80
2023-04-02T17:05:32.731Z,6.80
2023-04-02T17:08:37.824Z,6.80
2023-04-02T17:11:09.690Z,6.80
2023-04-02T17:13:42.482Z,6.70
2023-04-02T17:16:44.000Z,6.60
2023-04-02T17:19:15.569Z,6.70
2023-04-02T17:21:48.664Z,6.60
2023-04-02T17:24:32.171Z,6.60
2023-04-02T17:27:28.363Z,6.70
2023-04-02T17:30:02.167Z,6.50
2023-04-02T17:32:33.675Z,6.60
2023-04-02T17:35:12.629Z,6.70
2023-04-02T17:37:55.382Z,6.70
2023-04-02T17:40:51.312Z,6.70
2023-04-02T17:43:27.228Z,6.80
2023-04-02T17:46:01.691Z,6.80
2023-04-02T17:48:47.303Z,6.90
2023-04-02T17:51:35.660Z,6.90
2023-04-02T17:54:27.750Z,6.90
2023-04-02T17:57:34.834Z,6.80
2023-04-02T18:00:32.467Z,6.90
2023-04-02T18:03:36.224Z,6.70
2023-04-02T18:06:27.794Z,6.50
2023-04-02T18:09:24.872Z,6.60
2023-04-02T18:12:25.762Z,6.80
2023-04-02T18:15:18.025Z,6.60
2023-04-02T18:17:48.979Z,6.20
2023-04-02T18:20:38.367Z,5.90
2023-04-02T18:23:32.865Z,5.70
2023-04-02T18:26:21.276Z,5.80
2023-04-02T18:29:16.042Z,5.50
2023-04-02T18:32:03.660Z,5.30
2023-04-02T18:35:07.947Z,5.10
2023-04-02T18:37:43.657Z,4.80
2023-04-02T18:40:25.756Z,4.60
2023-04-02T18:42:58.844Z,4.50
2023-04-02T18:45:41.463Z,4.40
2023-04-02T18:48:29.552Z,4.30
2023-04-02T18:50:59.184Z,4.30
2023-04-02T18:53:28.512Z,4.20
2023-04-02T18:56:04.059Z,4.10
2023-04-02T18:58:56.858Z,4.10
2023-04-02T19:01:30.774Z,4.00
2023-04-02T19:04:17.755Z,4.00
2023-04-02T19:06:48.383Z,4.00
2023-04-02T19:09:35.630Z,3.90
2023-04-02T19:12:09.765Z,4.00
2023-04-02T19:14:36.849Z,4.00
2023-04-02T19:17:41.357Z,4.00
2023-04-02T19:20:11.019Z,4.00
2023-04-02T19:22:56.844Z,4.00
2023-04-02T19:25:39.042Z,4.00
2023-04-02T19:28:16.040Z,4.10
2023-04-02T19:31:28.766Z,4.20
2023-04-02T19:34:07.403Z,4.30
2023-04-02T19:36:46.735Z,4.10
2023-04-02T19:39:53.071Z,4.60
2023-04-02T19:42:26.141Z,4.40
2023-04-02T19:44:54.807Z,4.20
2023-04-02T19:47:22.496Z,4.00
2023-04-02T19:49:49.275Z,4.20
2023-04-02T19:52:16.307Z,4.10
2023-04-02T19:54:43.097Z,4.10
2023-04-02T19:57:14.420Z,4.10
2023-04-02T19:59:41.858Z,4.10
2023-04-02T20:02:10.537Z,4.10
2023-04-02T20:04:37.887Z,4.20
2023-04-02T20:07:04.663Z,4.30
2023-04-02T20:09:31.599Z,4.50
2023-04-02T20:11:58.592Z,4.40
2023-04-02T20:14:25.372Z,4.40
2023-04-02T20:16:52.166Z,4.40
2023-04-02T20:19:19.005Z,4.30
2023-04-02T20:21:45.970Z,4.50
2023-04-02T20:24:12.847Z,4.50
2023-04-02T20:26:39.638Z,4.40
2023-04-02T20:29:06.481Z,4.40
2023-04-02T20:31:33.799Z,4.40
2023-04-02T20:34:02.565Z,4.50
2023-04-02T20:36:29.467Z,4.40
2023-04-02T20:38:57.432Z,4.30
2023-04-02T20:41:24.187Z,4.80
2023-04-02T20:43:51.052Z,5.30
2023-04-02T20:46:18.009Z,5.00
2023-04-02T20:48:45.706Z,4.70
2023-04-02T20:51:14.837Z,4.60
2023-04-02T20:53:41.681Z,4.50
2023-04-02T20:56:14.333Z,4.70
2023-04-02T20:58:41.898Z,5.20
2023-04-02T21:01:15.638Z,5.40
2023-04-02T21:03:42.995Z,5.20
2023-04-02T21:06:33.069Z,4.50
2023-04-02T21:09:01.995Z,4.20
2023-04-02T21:11:28.783Z,4.30
2023-04-02T21:13:55.864Z,4.30
2023-04-02T21:16:27.970Z,4.30
2023-04-02T21:18:56.616Z,4.00
2023-04-02T21:21:23.499Z,3.80
2023-04-02T21:23:56.264Z,3.80
2023-04-02T21:26:23.456Z,3.60
2023-04-02T21:28:50.389Z,3.70
2023-04-02T21:31:29.524Z,3.80
2023-04-02T21:33:58.726Z,3.80
2023-04-02T21:36:31.602Z,3.70
2023-04-02T21:39:00.752Z,3.50
2023-04-02T21:41:30.048Z,3.50
2023-04-02T21:43:58.777Z,3.50
2023-04-02T21:46:28.487Z,3.70
2023-04-02T21:48:58.349Z,3.70
2023-04-02T21:51:27.697Z,3.60
2023-04-02T21:53:54.937Z,3.60
2023-04-02T21:56:27.446Z,3.50
2023-04-02T21:58:55.012Z,3.40
2023-04-02T22:01:27.689Z,3.40
2023-04-02T22:03:56.847Z,3.40
2023-04-02T22:06:25.534Z,3.30
2023-04-02T22:08:55.177Z,3.20
2023-04-02T22:11:26.728Z,3.20
2023-04-02T22:13:53.665Z,3.20
2023-04-02T22:16:23.254Z,3.10
2023-04-02T22:18:51.670Z,3.10
2023-04-02T22:21:19.581Z,3.20
2023-04-02T22:23:47.209Z,3.20
2023-04-02T22:26:16.310Z,3.20
2023-04-02T22:28:43.340Z,3.00
2023-04-02T22:31:15.009Z,3.00
2023-04-02T22:33:43.236Z,2.90
2023-04-02T22:36:10.086Z,2.90
2023-04-02T22:38:37.071Z,2.90
2023-04-02T22:41:07.978Z,2.90
2023-04-02T22:43:36.068Z,2.70
2023-04-02T22:46:04.289Z,2.80
2023-04-02T22:48:31.187Z,2.90
2023-04-02T22:50:57.975Z,2.70
2023-04-02T22:53:24.849Z,2.60
2023-04-02T22:55:52.852Z,2.60
2023-04-02T22:58:23.873Z,2.60
2023-04-02T23:00:50.619Z,2.50
2023-04-02T23:03:17.371Z,2.50
2023-04-02T23:05:47.021Z,2.50
2023-04-02T23:08:13.740Z,2.40
2023-04-02T23:10:40.708Z,2.30
2023-04-02T23:13:07.429Z,2.30
2023-04-02T23:15:34.149Z,2.30
2023-04-02T23:18:01.064Z,2.30
2023-04-02T23:20:27.809Z,2.30
2023-04-02T23:22:54.509Z,2.20
2023-04-02T23:25:21.282Z,2.30
2023-04-02T23:27:48.299Z,2.20
2023-04-02T23:30:15.155Z,2.20
2023-04-02T23:32:41.929Z,2.20
2023-04-02T23:35:08.940Z,2.30
2023-04-02T23:37:35.675Z,2.20
2023-04-02T23:40:02.458Z,2.10
2023-04-02T23:42:29.235Z,2.10
2023-04-02T23:44:56.016Z,2.10
2023-04-02T23:47:22.819Z,2.00
2023-04-02T23:49:49.577Z,2.10
2023-04-02T23:52:16.303Z,2.10
2023-04-02T23:54:43.047Z,2.00
2023-04-02T23:57:10.012Z,2.20
2023-04-02T23:59:36.831Z,2.10
